Observation data for Seagraves on 07/03/2020      Previous  Date  Next       Current Mesonet Observations  Soil Data  Daily Summary Page  Observations in Plain Language
KSGV 030500Z 12006KT 26/16 A3005 RMK A01 T02640156  RH  054%=      5-min Rain = 0
KSGV 030505Z 13006KT 26/15 A3005 RMK A01 T02640154  RH  053%=      5-min Rain = 0
KSGV 030510Z 13007KT 26/15 A3005 RMK A01 T02640149  RH  052%=      5-min Rain = 0
KSGV 030515Z 14008KT 27/15 A3006 RMK A01 T02660145  RH  050%=      5-min Rain = 0
KSGV 030520Z 14008KT 27/14 A3005 RMK A01 T02660143  RH  049%=      5-min Rain = 0
KSGV 030525Z 14008KT 27/14 A3006 RMK A01 T02650142  RH  049%=      5-min Rain = 0
KSGV 030530Z 13006KT 26/14 A3006 RMK A01 T02630142  RH  050%=      5-min Rain = 0
KSGV 030535Z 13005KT 26/14 A3006 RMK A01 T02600141  RH  050%=      5-min Rain = 0
KSGV 030540Z 13005KT 26/14 A3006 RMK A01 T02580141  RH  051%=      5-min Rain = 0
KSGV 030545Z 14006KT 26/14 A3006 RMK A01 T02570139  RH  050%=      5-min Rain = 0
KSGV 030550Z 14006KT 26/14 A3006 RMK A01 T02570138  RH  050%=      5-min Rain = 0
KSGV 030555Z 14005KT 26/14 A3006 RMK A01 T02550137  RH  050%=      5-min Rain = 0
KSGV 030600Z 14005KT 25/14 A3007 RMK A01 T02540136  RH  050%=      5-min Rain = 0
KSGV 030605Z 14005KT 25/14 A3007 RMK A01 T02530136  RH  050%=      5-min Rain = 0
KSGV 030610Z 13004KT 25/14 A3007 RMK A01 T02510135  RH  051%=      5-min Rain = 0
KSGV 030615Z 13003KT 25/14 A3007 RMK A01 T02500135  RH  051%=      5-min Rain = 0
KSGV 030620Z 13004KT 25/13 A3007 RMK A01 T02480133  RH  051%=      5-min Rain = 0
KSGV 030625Z 13004KT 25/13 A3008 RMK A01 T02480132  RH  051%=      5-min Rain = 0
KSGV 030630Z 12004KT 25/13 A3008 RMK A01 T02480133  RH  051%=      5-min Rain = 0
KSGV 030635Z 13003KT 25/13 A3007 RMK A01 T02480133  RH  051%=      5-min Rain = 0
KSGV 030640Z 13004KT 25/13 A3007 RMK A01 T02460132  RH  051%=      5-min Rain = 0
KSGV 030645Z 14004KT 25/13 A3007 RMK A01 T02460131  RH  051%=      5-min Rain = 0
KSGV 030650Z 15005KT 25/13 A3006 RMK A01 T02450131  RH  051%=      5-min Rain = 0
KSGV 030655Z 15004KT 25/13 A3006 RMK A01 T02450130  RH  051%=      5-min Rain = 0
KSGV 030700Z 15005KT 25/13 A3006 RMK A01 T02460130  RH  051%=      5-min Rain = 0
KSGV 030705Z 16004KT 25/13 A3006 RMK A01 T02460131  RH  051%=      5-min Rain = 0
KSGV 030710Z 16003KT 25/13 A3007 RMK A01 T02450130  RH  051%=      5-min Rain = 0
KSGV 030715Z 16002KT 24/13 A3007 RMK A01 T02430130  RH  051%=      5-min Rain = 0
KSGV 030720Z 16002KT 24/13 A3006 RMK A01 T02430130  RH  051%=      5-min Rain = 0
KSGV 030725Z 16003KT 24/13 A3006 RMK A01 T02420130  RH  052%=      5-min Rain = 0
KSGV 030730Z 15003KT 24/13 A3005 RMK A01 T02420132  RH  052%=      5-min Rain = 0
KSGV 030735Z 13003KT 24/13 A3005 RMK A01 T02420132  RH  053%=      5-min Rain = 0
KSGV 030740Z 12003KT 24/13 A3005 RMK A01 T02420132  RH  052%=      5-min Rain = 0
KSGV 030745Z 13003KT 24/13 A3005 RMK A01 T02410132  RH  052%=      5-min Rain = 0
KSGV 030750Z 15003KT 24/13 A3005 RMK A01 T02390132  RH  053%=      5-min Rain = 0
KSGV 030755Z 14002KT 24/13 A3005 RMK A01 T02360132  RH  054%=      5-min Rain = 0
KSGV 030800Z 16002KT 23/13 A3005 RMK A01 T02330132  RH  055%=      5-min Rain = 0
KSGV 030805Z 13002KT 23/13 A3005 RMK A01 T02310132  RH  056%=      5-min Rain = 0
KSGV 030810Z 12003KT 23/13 A3005 RMK A01 T02320134  RH  057%=      5-min Rain = 0
KSGV 030815Z 12003KT 24/13 A3005 RMK A01 T02350134  RH  055%=      5-min Rain = 0
KSGV 030820Z 13003KT 24/13 A3005 RMK A01 T02360133  RH  055%=      5-min Rain = 0
KSGV 030825Z 12004KT 24/13 A3004 RMK A01 T02360133  RH  054%=      5-min Rain = 0
KSGV 030830Z 09003KT 24/13 A3005 RMK A01 T02350134  RH  055%=      5-min Rain = 0
KSGV 030835Z 09002KT 23/13 A3004 RMK A01 T02330132  RH  055%=      5-min Rain = 0
KSGV 030840Z 10003KT 23/13 A3004 RMK A01 T02320132  RH  056%=      5-min Rain = 0
KSGV 030845Z 11002KT 23/13 A3004 RMK A01 T02320133  RH  056%=      5-min Rain = 0
KSGV 030850Z 10001KT 23/13 A3004 RMK A01 T02300132  RH  056%=      5-min Rain = 0
KSGV 030855Z 10000KT 23/13 A3004 RMK A01 T02280133  RH  057%=      5-min Rain = 0
KSGV 030900Z 35000KT 22/14 A3004 RMK A01 T02210135  RH  060%=      5-min Rain = 0
KSGV 030905Z 33003KT 21/13 A3004 RMK A01 T02130134  RH  063%=      5-min Rain = 0
KSGV 030910Z 34005KT 21/13 A3004 RMK A01 T02060131  RH  065%=      5-min Rain = 0
KSGV 030915Z 35005KT 21/13 A3005 RMK A01 T02060128  RH  063%=      5-min Rain = 0
KSGV 030920Z 36004KT 21/13 A3005 RMK A01 T02110130  RH  062%=      5-min Rain = 0
KSGV 030925Z 34004KT 21/13 A3005 RMK A01 T02140131  RH  061%=      5-min Rain = 0
KSGV 030930Z 33003KT 21/13 A3004 RMK A01 T02120131  RH  062%=      5-min Rain = 0
KSGV 030935Z 33002KT 21/13 A3004 RMK A01 T02100131  RH  063%=      5-min Rain = 0
KSGV 030940Z 34003KT 21/13 A3004 RMK A01 T02080134  RH  065%=      5-min Rain = 0
KSGV 030945Z 34004KT 21/13 A3004 RMK A01 T02060134  RH  066%=      5-min Rain = 0
KSGV 030950Z 34004KT 21/13 A3004 RMK A01 T02050130  RH  065%=      5-min Rain = 0
KSGV 030955Z 33005KT 21/13 A3004 RMK A01 T02050129  RH  064%=      5-min Rain = 0
KSGV 031000Z 33005KT 20/13 A3004 RMK A01 T02020131  RH  066%=      5-min Rain = 0
KSGV 031005Z 36005KT 20/13 A3005 RMK A01 T02040128  RH  064%=      5-min Rain = 0
KSGV 031010Z 01005KT 21/13 A3005 RMK A01 T02110131  RH  062%=      5-min Rain = 0
KSGV 031015Z 01005KT 22/13 A3005 RMK A01 T02170134  RH  062%=      5-min Rain = 0
KSGV 031020Z 36006KT 22/13 A3005 RMK A01 T02160134  RH  062%=      5-min Rain = 0
KSGV 031025Z 00007KT 21/13 A3006 RMK A01 T02130134  RH  063%=      5-min Rain = 0
KSGV 031030Z 02007KT 22/13 A3006 RMK A01 T02150134  RH  062%=      5-min Rain = 0
KSGV 031035Z 02006KT 22/13 A3007 RMK A01 T02160134  RH  062%=      5-min Rain = 0
KSGV 031040Z 01006KT 22/13 A3007 RMK A01 T02160134  RH  062%=      5-min Rain = 0
KSGV 031045Z 02005KT 22/13 A3007 RMK A01 T02150134  RH  062%=      5-min Rain = 0
KSGV 031050Z 03006KT 22/14 A3007 RMK A01 T02150136  RH  063%=      5-min Rain = 0
KSGV 031055Z 04004KT 22/14 A3008 RMK A01 T02150136  RH  063%=      5-min Rain = 0
KSGV 031100Z 01004KT 21/14 A3008 RMK A01 T02140136  RH  064%=      5-min Rain = 0
KSGV 031105Z 01003KT 21/14 A3007 RMK A01 T02120137  RH  065%=      5-min Rain = 0
KSGV 031110Z 04002KT 21/14 A3008 RMK A01 T02110137  RH  065%=      5-min Rain = 0
KSGV 031115Z 04003KT 21/14 A3008 RMK A01 T02120138  RH  065%=      5-min Rain = 0
KSGV 031120Z 03004KT 21/14 A3008 RMK A01 T02120139  RH  066%=      5-min Rain = 0
KSGV 031125Z 04004KT 21/14 A3008 RMK A01 T02130140  RH  066%=      5-min Rain = 0
KSGV 031130Z 04004KT 21/14 A3009 RMK A01 T02130140  RH  066%=      5-min Rain = 0
KSGV 031135Z 03005KT 21/14 A3009 RMK A01 T02130141  RH  066%=      5-min Rain = 0
KSGV 031140Z 04005KT 21/14 A3009 RMK A01 T02130142  RH  067%=      5-min Rain = 0
KSGV 031145Z 06004KT 21/14 A3009 RMK A01 T02130142  RH  067%=      5-min Rain = 0
KSGV 031150Z 06003KT 21/14 A3008 RMK A01 T02130142  RH  067%=      5-min Rain = 0
KSGV 031155Z 07003KT 21/14 A3008 RMK A01 T02140142  RH  067%=      5-min Rain = 0
KSGV 031200Z 06005KT 21/14 A3009 RMK A01 T02130142  RH  067%=      5-min Rain = 0
KSGV 031205Z 09003KT 21/14 A3009 RMK A01 T02140142  RH  066%=      5-min Rain = 0
KSGV 031210Z 10003KT 21/14 A3009 RMK A01 T02130142  RH  067%=      5-min Rain = 0
KSGV 031215Z 10003KT 21/14 A3009 RMK A01 T02140143  RH  067%=      5-min Rain = 0
KSGV 031220Z 11003KT 21/14 A3009 RMK A01 T02140142  RH  066%=      5-min Rain = 0
KSGV 031225Z 10002KT 22/14 A3008 RMK A01 T02150141  RH  066%=      5-min Rain = 0
KSGV 031230Z 11003KT 22/14 A3008 RMK A01 T02170142  RH  065%=      5-min Rain = 0
KSGV 031235Z 12003KT 22/14 A3008 RMK A01 T02180141  RH  064%=      5-min Rain = 0
KSGV 031240Z 12002KT 22/14 A3008 RMK A01 T02220142  RH  063%=      5-min Rain = 0
KSGV 031245Z 12003KT 23/14 A3008 RMK A01 T02260143  RH  062%=      5-min Rain = 0
KSGV 031250Z 13003KT 23/14 A3008 RMK A01 T02300144  RH  061%=      5-min Rain = 0
KSGV 031255Z 12004KT 23/15 A3008 RMK A01 T02340145  RH  060%=      5-min Rain = 0
KSGV 031300Z 11004KT 24/14 A3008 RMK A01 T02380144  RH  058%=      5-min Rain = 0
KSGV 031305Z 11004KT 24/14 A3008 RMK A01 T02430144  RH  057%=      5-min Rain = 0
KSGV 031310Z 12004KT 25/15 A3008 RMK A01 T02450146  RH  056%=      5-min Rain = 0
KSGV 031315Z 13005KT 25/15 A3008 RMK A01 T02480147  RH  056%=      5-min Rain = 0
KSGV 031320Z 13005KT 25/15 A3008 RMK A01 T02490148  RH  056%=      5-min Rain = 0
KSGV 031325Z 13006KT 25/15 A3009 RMK A01 T02520150  RH  056%=      5-min Rain = 0
KSGV 031330Z 13007KT 25/15 A3009 RMK A01 T02530151  RH  056%=      5-min Rain = 0
KSGV 031335Z 13006G11KT 25/15 A3009 RMK A01 T02500152  RH  057%=      5-min Rain = 0
KSGV 031340Z 14007KT 25/15 A3009 RMK A01 T02500153  RH  057%=      5-min Rain = 0
KSGV 031345Z 14006G12KT 25/15 A301 RMK A01 T02520154  RH  057%=      5-min Rain = 0
KSGV 031350Z 13008KT 25/15 A301 RMK A01 T02510153  RH  057%=      5-min Rain = 0
KSGV 031355Z 14007G12KT 25/15 A3009 RMK A01 T02540153  RH  056%=      5-min Rain = 0
KSGV 031400Z 14008KT 25/15 A3009 RMK A01 T02530153  RH  056%=      5-min Rain = 0
KSGV 031405Z 14008KT 26/16 A301 RMK A01 T02570155  RH  056%=      5-min Rain = 0
KSGV 031410Z 14009KT 26/16 A301 RMK A01 T02600156  RH  055%=      5-min Rain = 0
KSGV 031415Z 14008G14KT 26/16 A301 RMK A01 T02630157  RH  055%=      5-min Rain = 0
KSGV 031420Z 16007KT 27/16 A301 RMK A01 T02660157  RH  054%=      5-min Rain = 0
KSGV 031425Z 16008KT 27/16 A301 RMK A01 T02710158  RH  052%=      5-min Rain = 0
KSGV 031430Z 15009G14KT 27/16 A301 RMK A01 T02720159  RH  052%=      5-min Rain = 0
KSGV 031435Z 16011KT 27/16 A301 RMK A01 T02710160  RH  053%=      5-min Rain = 0
KSGV 031440Z 16011KT 27/16 A301 RMK A01 T02740161  RH  053%=      5-min Rain = 0
KSGV 031445Z 16011KT 28/16 A301 RMK A01 T02750161  RH  052%=      5-min Rain = 0
KSGV 031450Z 15007KT 28/16 A301 RMK A01 T02790164  RH  052%=      5-min Rain = 0
KSGV 031455Z 16010KT 28/16 A301 RMK A01 T02820164  RH  051%=      5-min Rain = 0
KSGV 031500Z 17010KT 28/16 A301 RMK A01 T02840163  RH  050%=      5-min Rain = 0
KSGV 031505Z 15009KT 28/16 A301 RMK A01 T02800163  RH  052%=      5-min Rain = 0
KSGV 031510Z 15010KT 28/16 A301 RMK A01 T02830164  RH  051%=      5-min Rain = 0
KSGV 031515Z 14009G14KT 28/16 A3011 RMK A01 T02820164  RH  051%=      5-min Rain = 0
KSGV 031520Z 16008G13KT 29/17 A3011 RMK A01 T02880165  RH  050%=      5-min Rain = 0
KSGV 031525Z 15008G13KT 29/17 A3011 RMK A01 T02880166  RH  050%=      5-min Rain = 0
KSGV 031530Z 17010KT 29/17 A3011 RMK A01 T02900165  RH  049%=      5-min Rain = 0
KSGV 031535Z 15010G15KT 29/17 A3011 RMK A01 T02900165  RH  049%=      5-min Rain = 0
KSGV 031540Z 15010G15KT 29/17 A3011 RMK A01 T02870166  RH  050%=      5-min Rain = 0
KSGV 031545Z 14008G14KT 29/17 A3011 RMK A01 T02900167  RH  050%=      5-min Rain = 0
KSGV 031550Z 14009KT 29/17 A3011 RMK A01 T02890167  RH  050%=      5-min Rain = 0
KSGV 031555Z 16010G15KT 29/17 A3011 RMK A01 T02910167  RH  049%=      5-min Rain = 0
KSGV 031600Z 15009G14KT 29/17 A3011 RMK A01 T02940167  RH  049%=      5-min Rain = 0
KSGV 031605Z 15009G15KT 30/17 A3011 RMK A01 T02950167  RH  049%=      5-min Rain = 0
KSGV 031610Z 14009G14KT 29/17 A3011 RMK A01 T02940167  RH  049%=      5-min Rain = 0
KSGV 031615Z 12006G11KT 29/17 A3011 RMK A01 T02940168  RH  049%=      5-min Rain = 0
KSGV 031620Z 16009KT 30/17 A3011 RMK A01 T03010167  RH  047%=      5-min Rain = 0
KSGV 031625Z 16008G14KT 30/17 A3011 RMK A01 T03020167  RH  046%=      5-min Rain = 0
KSGV 031630Z 16008KT 30/17 A3011 RMK A01 T03040168  RH  046%=      5-min Rain = 0
KSGV 031635Z 14008G14KT 30/17 A3011 RMK A01 T03040170  RH  047%=      5-min Rain = 0
KSGV 031640Z 14009G14KT 30/17 A3011 RMK A01 T03010168  RH  047%=      5-min Rain = 0
KSGV 031645Z 14008KT 30/17 A3011 RMK A01 T03030167  RH  046%=      5-min Rain = 0
KSGV 031650Z 13007KT 30/17 A3011 RMK A01 T03010166  RH  047%=      5-min Rain = 0
KSGV 031655Z 12007G12KT 31/17 A3011 RMK A01 T03060166  RH  045%=      5-min Rain = 0
KSGV 031700Z 13008G13KT 30/16 A3011 RMK A01 T03040163  RH  045%=      5-min Rain = 0
KSGV 031705Z 12007KT 30/16 A3011 RMK A01 T03040161  RH  044%=      5-min Rain = 0
KSGV 031710Z 13008G13KT 31/16 A3011 RMK A01 T03080162  RH  043%=      5-min Rain = 0
KSGV 031715Z 16007KT 31/16 A3011 RMK A01 T03100162  RH  043%=      5-min Rain = 0
KSGV 031720Z 14006G11KT 32/16 A3011 RMK A01 T03180164  RH  042%=      5-min Rain = 0
KSGV 031725Z 12006G12KT 32/17 A3011 RMK A01 T03160165  RH  042%=      5-min Rain = 0
KSGV 031730Z 12006KT 32/16 A3011 RMK A01 T03190158  RH  040%=      5-min Rain = 0
KSGV 031735Z 13004G11KT 32/16 A3011 RMK A01 T03150155  RH  040%=      5-min Rain = 0
KSGV 031740Z 14005G10KT 32/17 A3011 RMK A01 T03200166  RH  042%=      5-min Rain = 0
KSGV 031745Z 13008G14KT 32/16 A301 RMK A01 T03210162  RH  040%=      5-min Rain = 0
KSGV 031750Z 12005G12KT 32/16 A301 RMK A01 T03230161  RH  040%=      5-min Rain = 0
KSGV 031755Z 12007G13KT 33/16 A301 RMK A01 T03260158  RH  038%=      5-min Rain = 0
KSGV 031800Z 12009G14KT 33/16 A301 RMK A01 T03260163  RH  040%=      5-min Rain = 0
KSGV 031805Z 11006G11KT 32/16 A301 RMK A01 T03210161  RH  040%=      5-min Rain = 0
KSGV 031810Z 12009G15KT 33/16 A301 RMK A01 T03260155  RH  037%=      5-min Rain = 0
KSGV 031815Z 11009G14KT 33/15 A301 RMK A01 T03290151  RH  036%=      5-min Rain = 0
KSGV 031820Z 11008G15KT 33/16 A301 RMK A01 T03250159  RH  039%=      5-min Rain = 0
KSGV 031825Z 12010G18KT 33/15 A301 RMK A01 T03290149  RH  035%=      5-min Rain = 0
KSGV 031830Z 14009G14KT 33/16 A3009 RMK A01 T03280155  RH  037%=      5-min Rain = 0
KSGV 031835Z 11006G12KT 33/16 A3009 RMK A01 T03290155  RH  037%=      5-min Rain = 0
KSGV 031840Z 12008G14KT 33/16 A3009 RMK A01 T03330155  RH  036%=      5-min Rain = 0
KSGV 031845Z 13010KT 33/15 A3009 RMK A01 T03290152  RH  036%=      5-min Rain = 0
KSGV 031850Z 16011G17KT 34/15 A3009 RMK A01 T03360149  RH  034%=      5-min Rain = 0
KSGV 031855Z 13008G14KT 33/15 A3008 RMK A01 T03330151  RH  035%=      5-min Rain = 0
KSGV 031900Z 13008G15KT 34/15 A3008 RMK A01 T03350153  RH  035%=      5-min Rain = 0
KSGV 031905Z 10010G17KT 34/15 A3008 RMK A01 T03360145  RH  033%=      5-min Rain = 0
KSGV 031910Z 12010G16KT 34/15 A3008 RMK A01 T03350147  RH  034%=      5-min Rain = 0
KSGV 031915Z 15009KT 34/15 A3007 RMK A01 T03410148  RH  033%=      5-min Rain = 0
KSGV 031920Z 14009G15KT 34/14 A3007 RMK A01 T03390144  RH  032%=      5-min Rain = 0
KSGV 031925Z 11009G17KT 34/15 A3007 RMK A01 T03370148  RH  033%=      5-min Rain = 0
KSGV 031930Z 16009KT 34/15 A3007 RMK A01 T03420145  RH  032%=      5-min Rain = 0
KSGV 031935Z 14008G14KT 34/14 A3007 RMK A01 T03430143  RH  032%=      5-min Rain = 0
KSGV 031940Z 12008G14KT 35/14 A3006 RMK A01 T03460139  RH  030%=      5-min Rain = 0
KSGV 031945Z 14007KT 35/14 A3006 RMK A01 T03450139  RH  030%=      5-min Rain = 0
KSGV 031950Z 14007G12KT 35/14 A3006 RMK A01 T03490142  RH  030%=      5-min Rain = 0
KSGV 031955Z 12007G13KT 35/14 A3006 RMK A01 T03470140  RH  030%=      5-min Rain = 0
KSGV 032000Z 14010G17KT 35/14 A3006 RMK A01 T03500139  RH  029%=      5-min Rain = 0
KSGV 032005Z 17010G17KT 35/14 A3005 RMK A01 T03520136  RH  029%=      5-min Rain = 0
KSGV 032010Z 15009KT 35/14 A3005 RMK A01 T03530139  RH  029%=      5-min Rain = 0
KSGV 032015Z 14010G16KT 36/14 A3005 RMK A01 T03550139  RH  029%=      5-min Rain = 0
KSGV 032020Z 14009G14KT 36/14 A3005 RMK A01 T03560138  RH  028%=      5-min Rain = 0
KSGV 032025Z 10007G13KT 35/14 A3005 RMK A01 T03500137  RH  029%=      5-min Rain = 0
KSGV 032030Z 12007G14KT 35/14 A3005 RMK A01 T03480139  RH  030%=      5-min Rain = 0
KSGV 032035Z 13008G15KT 34/14 A3005 RMK A01 T03430138  RH  030%=      5-min Rain = 0
KSGV 032040Z 15008G14KT 35/14 A3005 RMK A01 T03480137  RH  029%=      5-min Rain = 0
KSGV 032045Z 15011G16KT 36/14 A3005 RMK A01 T03580135  RH  028%=      5-min Rain = 0
KSGV 032050Z 15010G15KT 36/13 A3005 RMK A01 T03560131  RH  027%=      5-min Rain = 0
KSGV 032055Z 16007G12KT 35/13 A3005 RMK A01 T03540130  RH  027%=      5-min Rain = 0
KSGV 032100Z 15008G17KT 36/13 A3005 RMK A01 T03560129  RH  027%=      5-min Rain = 0
KSGV 032105Z 10008G14KT 36/13 A3005 RMK A01 T03600131  RH  026%=      5-min Rain = 0
KSGV 032110Z 12009G15KT 36/13 A3004 RMK A01 T03570128  RH  026%=      5-min Rain = 0
KSGV 032115Z 11008KT 35/13 A3004 RMK A01 T03540126  RH  026%=      5-min Rain = 0
KSGV 032120Z 14009G16KT 36/13 A3004 RMK A01 T03580127  RH  026%=      5-min Rain = 0
KSGV 032125Z 15008G13KT 36/13 A3004 RMK A01 T03560128  RH  026%=      5-min Rain = 0
KSGV 032130Z 14010G18KT 36/13 A3004 RMK A01 T03620125  RH  025%=      5-min Rain = 0
KSGV 032135Z 13008G13KT 35/12 A3004 RMK A01 T03530122  RH  026%=      5-min Rain = 0
KSGV 032140Z 12007KT 36/12 A3004 RMK A01 T03580124  RH  025%=      5-min Rain = 0
KSGV 032145Z 15008G15KT 36/12 A3004 RMK A01 T03580119  RH  025%=      5-min Rain = 0
KSGV 032150Z 11009G21KT 36/12 A3003 RMK A01 T03550119  RH  025%=      5-min Rain = 0
KSGV 032155Z 10007KT 35/12 A3004 RMK A01 T03520117  RH  025%=      5-min Rain = 0
KSGV 032200Z 10008G13KT 35/12 A3004 RMK A01 T03490116  RH  025%=      5-min Rain = 0
KSGV 032205Z 08004KT 35/12 A3003 RMK A01 T03480115  RH  025%=      5-min Rain = 0
KSGV 032210Z 10007G13KT 35/12 A3003 RMK A01 T03470116  RH  026%=      5-min Rain = 0
KSGV 032215Z 11005KT 35/12 A3003 RMK A01 T03490115  RH  025%=      5-min Rain = 0
KSGV 032220Z 10004G9KT 35/11 A3003 RMK A01 T03460114  RH  025%=      5-min Rain = 0
KSGV 032225Z 10003G8KT 35/11 A3003 RMK A01 T03490114  RH  025%=      5-min Rain = 0
KSGV 032230Z 12005KT 35/11 A3002 RMK A01 T03500112  RH  024%=      5-min Rain = 0
KSGV 032235Z 11004KT 35/11 A3002 RMK A01 T03510111  RH  024%=      5-min Rain = 0
KSGV 032240Z 13007KT 35/11 A3002 RMK A01 T03490111  RH  024%=      5-min Rain = 0
KSGV 032245Z 12009G14KT 35/11 A3002 RMK A01 T03500110  RH  024%=      5-min Rain = 0
KSGV 032250Z 13008G13KT 35/11 A3002 RMK A01 T03520110  RH  024%=      5-min Rain = 0
KSGV 032255Z 12006KT 36/11 A3001 RMK A01 T03560110  RH  023%=      5-min Rain = 0
KSGV 032300Z 13006KT 36/11 A3001 RMK A01 T03580107  RH  023%=      5-min Rain = 0
KSGV 032305Z 12007G12KT 35/11 A3001 RMK A01 T03540107  RH  023%=      5-min Rain = 0
KSGV 032310Z 13008G16KT 35/11 A3001 RMK A01 T03540108  RH  023%=      5-min Rain = 0
KSGV 032315Z 13006KT 35/11 A3001 RMK A01 T03540108  RH  023%=      5-min Rain = 0
KSGV 032320Z 11006KT 36/11 A3001 RMK A01 T03560108  RH  023%=      5-min Rain = 0
KSGV 032325Z 13008G16KT 36/11 A30 RMK A01 T03550110  RH  023%=      5-min Rain = 0
KSGV 032330Z 13008G14KT 35/11 A30 RMK A01 T03540109  RH  023%=      5-min Rain = 0
KSGV 032335Z 13009G18KT 36/11 A30 RMK A01 T03550110  RH  023%=      5-min Rain = 0
KSGV 032340Z 13007G12KT 36/11 A30 RMK A01 T03570111  RH  023%=      5-min Rain = 0
KSGV 032345Z 11009KT 36/11 A30 RMK A01 T03570110  RH  023%=      5-min Rain = 0
KSGV 032350Z 11007G12KT 36/11 A2999 RMK A01 T03560111  RH  023%=      5-min Rain = 0
KSGV 032355Z 13009G14KT 36/11 A2999 RMK A01 T03550109  RH  023%=      5-min Rain = 0
KSGV 040000Z 12007G12KT 36/11 A2999 RMK A01 T03560110  RH  023%=      5-min Rain = 0
KSGV 040005Z 12007G12KT 36/11 A30 RMK A01 T03550109  RH  023%=      5-min Rain = 0
KSGV 040010Z 13009KT 35/11 A30 RMK A01 T03530109  RH  024%=      5-min Rain = 0
KSGV 040015Z 13008G13KT 35/11 A30 RMK A01 T03530109  RH  024%=      5-min Rain = 0
KSGV 040020Z 12009KT 35/11 A30 RMK A01 T03490108  RH  024%=      5-min Rain = 0
KSGV 040025Z 11008KT 35/11 A30 RMK A01 T03480108  RH  024%=      5-min Rain = 0
KSGV 040030Z 11008KT 35/11 A3001 RMK A01 T03470107  RH  024%=      5-min Rain = 0
KSGV 040035Z 11007KT 35/11 A30 RMK A01 T03470107  RH  024%=      5-min Rain = 0
KSGV 040040Z 12006KT 35/11 A3001 RMK A01 T03450108  RH  024%=      5-min Rain = 0
KSGV 040045Z 12007KT 34/11 A3001 RMK A01 T03430107  RH  025%=      5-min Rain = 0
KSGV 040050Z 12005G10KT 34/11 A3001 RMK A01 T03430108  RH  025%=      5-min Rain = 0
KSGV 040055Z 12008KT 34/11 A3001 RMK A01 T03410107  RH  025%=      5-min Rain = 0
KSGV 040100Z 12006G11KT 34/11 A3001 RMK A01 T03420107  RH  025%=      5-min Rain = 0
KSGV 040105Z 11008KT 34/11 A3001 RMK A01 T03420107  RH  025%=      5-min Rain = 0
KSGV 040110Z 12007G12KT 34/11 A3001 RMK A01 T03410108  RH  025%=      5-min Rain = 0
KSGV 040115Z 12006G11KT 34/11 A3001 RMK A01 T03380108  RH  026%=      5-min Rain = 0
KSGV 040120Z 12007KT 34/11 A3001 RMK A01 T03370108  RH  026%=      5-min Rain = 0
KSGV 040125Z 11006KT 34/11 A3001 RMK A01 T03350107  RH  026%=      5-min Rain = 0
KSGV 040130Z 12007G12KT 34/11 A3002 RMK A01 T03350107  RH  026%=      5-min Rain = 0
KSGV 040135Z 12006KT 33/11 A3002 RMK A01 T03340108  RH  026%=      5-min Rain = 0
KSGV 040140Z 11007KT 33/11 A3002 RMK A01 T03320107  RH  026%=      5-min Rain = 0
KSGV 040145Z 11006KT 33/11 A3002 RMK A01 T03320106  RH  026%=      5-min Rain = 0
KSGV 040150Z 11006KT 33/11 A3002 RMK A01 T03300107  RH  026%=      5-min Rain = 0
KSGV 040155Z 11005KT 33/11 A3002 RMK A01 T03270108  RH  027%=      5-min Rain = 0
KSGV 040200Z 11005KT 33/11 A3002 RMK A01 T03260108  RH  027%=      5-min Rain = 0
KSGV 040205Z 11005KT 32/11 A3002 RMK A01 T03240108  RH  028%=      5-min Rain = 0
KSGV 040210Z 11005KT 32/11 A3002 RMK A01 T03210109  RH  028%=      5-min Rain = 0
KSGV 040215Z 12005KT 32/11 A3002 RMK A01 T03200109  RH  028%=      5-min Rain = 0
KSGV 040220Z 11006KT 32/11 A3002 RMK A01 T03180110  RH  029%=      5-min Rain = 0
KSGV 040225Z 12005KT 32/11 A3003 RMK A01 T03160110  RH  029%=      5-min Rain = 0
KSGV 040230Z 11005KT 31/11 A3003 RMK A01 T03140110  RH  029%=      5-min Rain = 0
KSGV 040235Z 11005KT 31/11 A3003 RMK A01 T03130110  RH  030%=      5-min Rain = 0
KSGV 040240Z 11005KT 31/11 A3003 RMK A01 T03110110  RH  030%=      5-min Rain = 0
KSGV 040245Z 11005KT 31/11 A3003 RMK A01 T03100110  RH  030%=      5-min Rain = 0
KSGV 040250Z 10004KT 31/11 A3003 RMK A01 T03080110  RH  031%=      5-min Rain = 0
KSGV 040255Z 10004KT 31/11 A3004 RMK A01 T03070110  RH  031%=      5-min Rain = 0
KSGV 040300Z 10005KT 31/11 A3004 RMK A01 T03060112  RH  031%=      5-min Rain = 0
KSGV 040305Z 11005KT 31/11 A3005 RMK A01 T03050113  RH  032%=      5-min Rain = 0
KSGV 040310Z 10005KT 30/11 A3005 RMK A01 T03030114  RH  032%=      5-min Rain = 0
KSGV 040315Z 09006KT 30/12 A3005 RMK A01 T03010116  RH  033%=      5-min Rain = 0
KSGV 040320Z 10005KT 30/12 A3005 RMK A01 T03000116  RH  034%=      5-min Rain = 0
KSGV 040325Z 10005KT 30/12 A3005 RMK A01 T02980116  RH  034%=      5-min Rain = 0
KSGV 040330Z 09005KT 30/12 A3006 RMK A01 T02970117  RH  034%=      5-min Rain = 0
KSGV 040335Z 09006KT 29/12 A3006 RMK A01 T02940117  RH  035%=      5-min Rain = 0
KSGV 040340Z 09006KT 29/12 A3006 RMK A01 T02930116  RH  035%=      5-min Rain = 0
KSGV 040345Z 10007KT 29/12 A3006 RMK A01 T02930115  RH  034%=      5-min Rain = 0
KSGV 040350Z 10007KT 29/11 A3006 RMK A01 T02940113  RH  034%=      5-min Rain = 0
KSGV 040355Z 10007KT 29/11 A3006 RMK A01 T02940114  RH  034%=      5-min Rain = 0
KSGV 040400Z 10007KT 29/12 A3006 RMK A01 T02930115  RH  034%=      5-min Rain = 0
KSGV 040405Z 10008KT 29/12 A3007 RMK A01 T02920116  RH  035%=      5-min Rain = 0
KSGV 040410Z 10008KT 29/12 A3007 RMK A01 T02910116  RH  035%=      5-min Rain = 0
KSGV 040415Z 10007KT 29/12 A3007 RMK A01 T02900117  RH  036%=      5-min Rain = 0
KSGV 040420Z 10007KT 29/12 A3007 RMK A01 T02890117  RH  036%=      5-min Rain = 0
KSGV 040425Z 11007KT 29/12 A3007 RMK A01 T02880118  RH  036%=      5-min Rain = 0
KSGV 040430Z 11007KT 29/12 A3007 RMK A01 T02870117  RH  036%=      5-min Rain = 0
KSGV 040435Z 11007G13KT 29/12 A3007 RMK A01 T02860117  RH  036%=      5-min Rain = 0
KSGV 040440Z 11008KT 29/12 A3007 RMK A01 T02860117  RH  036%=      5-min Rain = 0
KSGV 040445Z 11009KT 29/12 A3008 RMK A01 T02870116  RH  036%=      5-min Rain = 0
KSGV 040450Z 11008KT 29/12 A3008 RMK A01 T02880116  RH  036%=      5-min Rain = 0
KSGV 040455Z 11009G14KT 29/12 A3008 RMK A01 T02880115  RH  036%=      5-min Rain = 0

Page generated in 0.2159 seconds.